createdAt,value
2018-05-25T00:02:07.699Z,51.26
2018-05-25T00:07:10.184Z,51.34
2018-05-25T00:12:12.675Z,51.36
2018-05-25T00:17:15.174Z,51.64
2018-05-25T00:22:17.760Z,50.88
2018-05-25T00:27:21.067Z,51.08
2018-05-25T00:32:23.629Z,50.92
2018-05-25T00:37:26.369Z,51.16
2018-05-25T00:42:28.878Z,51.30
2018-05-25T00:47:31.393Z,51.41
2018-05-25T00:52:33.886Z,51.33
2018-05-25T00:57:39.231Z,51.82
2018-05-25T01:02:41.703Z,52.03
2018-05-25T01:07:44.385Z,52.24
2018-05-25T01:12:46.877Z,52.67
2018-05-25T01:17:49.508Z,53.21
2018-05-25T01:22:53.244Z,53.34
2018-05-25T01:27:56.675Z,53.56
2018-05-25T01:32:59.275Z,53.90
2018-05-25T01:38:01.766Z,54.30
2018-05-25T01:43:04.327Z,54.46
2018-05-25T01:48:06.799Z,54.55
2018-05-25T01:53:09.342Z,55.12
2018-05-25T01:58:11.811Z,55.21
2018-05-25T02:03:14.306Z,55.49
2018-05-25T02:08:16.801Z,55.72
2018-05-25T02:13:19.358Z,55.67
2018-05-25T02:18:22.035Z,55.94
2018-05-25T02:23:24.586Z,55.95
2018-05-25T02:28:27.180Z,56.07
2018-05-25T02:33:29.689Z,56.26
2018-05-25T02:38:32.227Z,56.51
2018-05-25T02:43:34.661Z,56.55
2018-05-25T02:48:37.207Z,56.56
2018-05-25T02:53:39.694Z,56.96
2018-05-25T02:58:42.252Z,57.24
2018-05-25T03:03:44.756Z,57.41
2018-05-25T03:08:47.275Z,56.92
2018-05-25T03:13:50.067Z,56.84
2018-05-25T03:18:52.771Z,56.66
2018-05-25T03:23:55.280Z,56.47
2018-05-25T03:28:57.812Z,56.31
2018-05-25T03:34:00.448Z,56.42
2018-05-25T03:39:02.938Z,56.06
2018-05-25T03:44:05.433Z,55.92
2018-05-25T03:49:07.955Z,55.64
2018-05-25T03:54:10.637Z,55.60
2018-05-25T03:59:25.035Z,55.47
2018-05-25T04:04:27.605Z,55.23
2018-05-25T04:09:31.624Z,55.26
2018-05-25T04:14:35.042Z,54.86
2018-05-25T04:19:38.543Z,54.43
2018-05-25T04:24:41.113Z,53.23
2018-05-25T04:29:43.633Z,41.12
2018-05-25T04:34:46.481Z,37.04
2018-05-25T04:39:50.017Z,32.79
2018-05-25T04:44:52.908Z,30.51
2018-05-25T04:49:55.468Z,31.00
2018-05-25T04:54:58.069Z,29.51
2018-05-25T05:00:01.226Z,28.55
2018-05-25T05:05:03.691Z,29.17
2018-05-25T05:10:06.162Z,29.02
2018-05-25T05:15:08.733Z,27.55
2018-05-25T05:20:11.233Z,27.10
2018-05-25T05:25:13.740Z,25.37
2018-05-25T05:30:16.213Z,23.68
2018-05-25T05:35:18.740Z,24.89
2018-05-25T05:40:21.270Z,24.05
2018-05-25T05:45:23.811Z,25.20
2018-05-25T05:50:26.396Z,25.08
2018-05-25T05:55:29.033Z,25.11
2018-05-25T06:00:31.518Z,24.71
2018-05-25T06:05:34.017Z,24.47
2018-05-25T06:10:36.528Z,22.58
2018-05-25T06:15:40.029Z,24.03
2018-05-25T06:20:42.499Z,22.35
2018-05-25T06:25:45.021Z,20.48
2018-05-25T06:30:47.835Z,19.04
2018-05-25T06:35:50.363Z,21.16
2018-05-25T06:40:53.019Z,21.46
2018-05-25T06:45:55.708Z,20.54
2018-05-25T06:50:58.378Z,20.26
2018-05-25T06:56:00.904Z,19.45
2018-05-25T07:01:03.406Z,19.13
2018-05-25T07:06:05.923Z,18.91
2018-05-25T07:11:08.419Z,19.79
2018-05-25T07:16:10.925Z,19.18
2018-05-25T07:21:13.394Z,19.32
2018-05-25T07:26:16.131Z,18.99
2018-05-25T07:31:18.742Z,18.33
2018-05-25T07:36:21.405Z,18.50
2018-05-25T07:41:24.013Z,19.17
2018-05-25T07:46:26.667Z,18.41
2018-05-25T07:51:29.192Z,19.02
2018-05-25T07:56:31.659Z,18.45
2018-05-25T08:01:34.172Z,19.35
2018-05-25T08:06:36.671Z,19.78
2018-05-25T08:11:39.200Z,19.33
2018-05-25T08:16:41.712Z,18.95
2018-05-25T08:21:44.330Z,20.25
2018-05-25T08:26:46.811Z,21.02
2018-05-25T08:31:49.873Z,21.42
2018-05-25T08:36:52.390Z,22.18
2018-05-25T08:41:55.062Z,22.56
2018-05-25T08:46:57.620Z,20.28
2018-05-25T08:52:00.132Z,19.77
2018-05-25T08:57:02.638Z,19.85
2018-05-25T09:02:06.194Z,23.13
2018-05-25T09:07:08.667Z,21.56
2018-05-25T09:12:11.366Z,21.69
2018-05-25T09:17:13.856Z,24.12
2018-05-25T09:22:16.504Z,24.71
2018-05-25T09:27:18.995Z,24.06
2018-05-25T09:32:21.511Z,22.76
2018-05-25T09:37:24.062Z,22.19
2018-05-25T09:42:26.570Z,20.05
2018-05-25T09:47:29.080Z,23.52
2018-05-25T09:52:31.570Z,25.81
2018-05-25T09:57:34.081Z,25.38
2018-05-25T10:02:36.624Z,26.36
2018-05-25T10:07:39.082Z,26.53
2018-05-25T10:12:41.569Z,24.39
2018-05-25T10:17:44.151Z,21.17
2018-05-25T10:22:46.642Z,22.49
2018-05-25T10:27:49.148Z,20.49
2018-05-25T10:32:51.692Z,19.54
2018-05-25T10:37:54.204Z,22.33
2018-05-25T10:42:56.738Z,24.70
2018-05-25T10:47:59.234Z,25.57
2018-05-25T10:53:01.731Z,27.51
2018-05-25T10:58:04.254Z,24.68
2018-05-25T11:03:06.770Z,24.99
2018-05-25T11:08:09.239Z,24.36
2018-05-25T11:13:11.738Z,22.96
2018-05-25T11:18:14.252Z,23.82
2018-05-25T11:23:16.742Z,23.95
2018-05-25T11:28:19.294Z,23.61
2018-05-25T11:33:21.863Z,22.30
2018-05-25T11:38:24.373Z,23.58
2018-05-25T11:43:26.994Z,25.99
2018-05-25T11:48:29.512Z,24.27
2018-05-25T11:53:32.009Z,25.48
2018-05-25T11:58:34.494Z,24.77
2018-05-25T12:03:36.997Z,24.08
2018-05-25T12:08:39.500Z,24.11
2018-05-25T12:13:41.994Z,22.99
2018-05-25T12:18:44.481Z,22.95
2018-05-25T12:23:47.043Z,23.89
2018-05-25T12:28:49.737Z,24.05
2018-05-25T12:33:52.235Z,23.13
2018-05-25T12:38:54.792Z,23.81
2018-05-25T12:43:57.368Z,24.58
2018-05-25T12:48:59.854Z,23.50
2018-05-25T12:54:02.371Z,22.04
2018-05-25T12:59:04.847Z,22.99
2018-05-25T13:04:07.384Z,23.98
2018-05-25T13:09:09.858Z,25.44
2018-05-25T13:14:12.374Z,25.44
2018-05-25T13:19:14.869Z,24.46
2018-05-25T13:24:17.816Z,23.67
2018-05-25T13:29:20.404Z,24.68
2018-05-25T13:34:22.990Z,22.53
2018-05-25T13:39:25.576Z,22.40
2018-05-25T13:44:28.048Z,22.48
2018-05-25T13:49:30.561Z,24.10
2018-05-25T13:54:33.068Z,22.38
2018-05-25T13:59:35.627Z,21.26
2018-05-25T14:04:38.126Z,23.25
2018-05-25T14:09:40.696Z,22.87
2018-05-25T14:14:43.171Z,24.86
2018-05-25T14:19:45.674Z,25.93
2018-05-25T14:24:49.167Z,25.15
2018-05-25T14:29:51.962Z,24.35
2018-05-25T14:34:54.587Z,24.14
2018-05-25T14:39:57.255Z,24.43
2018-05-25T14:44:59.794Z,24.99
2018-05-25T14:50:02.351Z,23.85
2018-05-25T14:55:04.864Z,23.72
2018-05-25T15:00:07.384Z,25.80
2018-05-25T15:05:09.930Z,27.15
2018-05-25T15:10:12.432Z,25.17
2018-05-25T15:15:15.036Z,24.74
2018-05-25T15:20:17.647Z,24.40
2018-05-25T15:25:20.321Z,24.34
2018-05-25T15:30:22.842Z,25.27
2018-05-25T15:35:25.368Z,24.62
2018-05-25T15:40:27.897Z,25.22
2018-05-25T15:45:30.576Z,25.23
2018-05-25T15:50:33.073Z,23.67
2018-05-25T15:55:35.718Z,23.56
2018-05-25T16:00:38.237Z,24.20
2018-05-25T16:05:41.454Z,24.46
2018-05-25T16:10:43.969Z,24.52
2018-05-25T16:15:46.504Z,25.97
2018-05-25T16:20:49.018Z,24.61
2018-05-25T16:25:51.607Z,25.37
2018-05-25T16:30:54.209Z,25.33
2018-05-25T16:35:56.884Z,24.80
2018-05-25T16:40:59.572Z,24.81
2018-05-25T16:46:02.049Z,24.54
2018-05-25T16:51:04.542Z,24.80
2018-05-25T16:56:07.249Z,25.98
2018-05-25T17:01:09.791Z,26.45
2018-05-25T17:06:12.357Z,25.90
2018-05-25T17:11:14.969Z,26.41
2018-05-25T17:16:26.983Z,25.12
2018-05-25T17:21:41.469Z,25.59
2018-05-25T17:26:45.095Z,25.34
2018-05-25T17:31:47.727Z,25.86
2018-05-25T17:36:50.488Z,26.62
2018-05-25T17:41:53.611Z,27.15
2018-05-25T17:46:56.500Z,26.66
2018-05-25T17:57:08.605Z,27.02
2018-05-25T18:02:11.217Z,27.33
2018-05-25T18:07:13.696Z,27.97
2018-05-25T18:12:16.227Z,29.10
2018-05-25T18:17:18.780Z,30.63
2018-05-25T18:22:28.709Z,31.39
2018-05-25T18:27:33.902Z,32.61
2018-05-25T18:32:38.830Z,32.62
2018-05-25T18:37:41.298Z,33.18
2018-05-25T18:42:44.383Z,33.33
2018-05-25T18:47:46.891Z,33.87
2018-05-25T18:52:49.951Z,34.33
2018-05-25T18:57:52.708Z,34.53
2018-05-25T19:02:55.641Z,34.64
2018-05-25T19:07:58.282Z,34.90
2018-05-25T19:13:05.781Z,35.39
2018-05-25T19:18:10.117Z,35.90
2018-05-25T19:23:13.693Z,36.39
2018-05-25T19:28:20.568Z,36.80
2018-05-25T19:33:25.943Z,37.10
2018-05-25T19:38:29.980Z,37.24
2018-05-25T19:43:33.148Z,37.32
2018-05-25T19:48:36.888Z,37.47
2018-05-25T19:53:39.481Z,37.89
2018-05-25T19:58:43.865Z,37.82
2018-05-25T20:03:46.624Z,37.89
2018-05-25T20:08:49.423Z,38.24
2018-05-25T20:13:52.930Z,38.40
2018-05-25T20:18:56.101Z,38.87
2018-05-25T20:23:58.996Z,38.86
2018-05-25T20:29:01.983Z,38.73
2018-05-25T20:34:05.838Z,39.02
2018-05-25T20:39:11.788Z,39.67
2018-05-25T20:44:17.037Z,39.73
2018-05-25T20:49:19.508Z,40.05
2018-05-25T20:54:22.251Z,40.41
2018-05-25T20:59:28.307Z,40.54
2018-05-25T21:04:31.453Z,40.93
2018-05-25T21:09:34.524Z,41.38
2018-05-25T21:14:37.995Z,41.73
2018-05-25T21:19:41.020Z,42.48
2018-05-25T21:24:43.952Z,42.67
2018-05-25T21:29:48.380Z,42.76
2018-05-25T21:34:51.344Z,42.90
2018-05-25T21:39:54.183Z,43.07
2018-05-25T21:44:56.747Z,43.41
2018-05-25T21:49:59.295Z,43.84
2018-05-25T21:55:03.750Z,43.72
2018-05-25T22:00:07.020Z,43.96
2018-05-25T22:05:09.721Z,45.04
2018-05-25T22:10:12.757Z,45.47
2018-05-25T22:15:15.547Z,45.86
2018-05-25T22:20:18.386Z,46.30
2018-05-25T22:25:21.636Z,46.23
2018-05-25T22:30:24.558Z,46.31
2018-05-25T22:35:27.317Z,46.74
2018-05-25T22:40:29.875Z,47.49
2018-05-25T22:45:44.267Z,47.71
2018-05-25T22:50:58.711Z,47.82
2018-05-25T22:56:01.204Z,48.38
2018-05-25T23:01:06.525Z,48.77
2018-05-25T23:06:09.874Z,48.83
2018-05-25T23:11:12.370Z,49.29
2018-05-25T23:16:15.839Z,49.24
2018-05-25T23:21:18.478Z,49.37
2018-05-25T23:26:21.056Z,49.62
2018-05-25T23:31:23.630Z,50.38
2018-05-25T23:36:26.153Z,50.60
2018-05-25T23:41:28.690Z,51.45
2018-05-25T23:46:31.190Z,51.91
2018-05-25T23:51:33.701Z,51.76
2018-05-25T23:56:36.261Z,52.36
